createdAt,value
2023-03-06T00:00:10.606Z,3.13
2023-03-06T00:00:28.709Z,3.14
2023-03-06T00:00:44.761Z,3.16
2023-03-06T00:00:59.668Z,3.14
2023-03-06T00:01:17.122Z,3.15
2023-03-06T00:01:29.255Z,3.14
2023-03-06T00:01:41.371Z,3.13
2023-03-06T00:01:53.405Z,3.13
2023-03-06T00:02:05.619Z,3.11
2023-03-06T00:02:17.748Z,3.12
2023-03-06T00:02:31.222Z,3.12
2023-03-06T00:02:44.234Z,3.11
2023-03-06T00:02:57.015Z,3.10
2023-03-06T00:03:09.910Z,3.11
2023-03-06T00:03:22.556Z,3.11
2023-03-06T00:03:34.718Z,3.12
2023-03-06T00:03:47.189Z,3.12
2023-03-06T00:03:59.670Z,3.13
2023-03-06T00:04:11.570Z,3.11
2023-03-06T00:04:23.741Z,3.11
2023-03-06T00:04:36.473Z,3.12
2023-03-06T00:04:48.744Z,3.12
2023-03-06T00:05:01.044Z,3.11
2023-03-06T00:05:14.026Z,3.12
2023-03-06T00:05:27.685Z,3.11
2023-03-06T00:05:41.671Z,3.11
2023-03-06T00:05:54.036Z,3.12
2023-03-06T00:06:06.859Z,3.12
2023-03-06T00:06:19.323Z,3.10
2023-03-06T00:06:32.655Z,3.09
2023-03-06T00:06:45.356Z,3.11
2023-03-06T00:06:57.706Z,3.11
2023-03-06T00:07:12.085Z,3.11
2023-03-06T00:07:26.220Z,3.11
2023-03-06T00:07:39.434Z,3.11
2023-03-06T00:07:52.024Z,3.11
2023-03-06T00:08:06.105Z,3.11
2023-03-06T00:08:18.467Z,3.12
2023-03-06T00:08:32.238Z,3.12
2023-03-06T00:08:45.084Z,3.12
2023-03-06T00:08:58.153Z,3.12
2023-03-06T00:09:11.260Z,3.11
2023-03-06T00:09:23.736Z,3.13
2023-03-06T00:09:36.038Z,3.14
2023-03-06T00:09:48.323Z,3.15
2023-03-06T00:10:00.227Z,3.13
2023-03-06T00:10:14.829Z,3.14
2023-03-06T00:10:29.771Z,3.14
2023-03-06T00:10:42.100Z,3.13
2023-03-06T00:10:54.516Z,3.13
2023-03-06T00:11:07.197Z,3.13
2023-03-06T00:11:19.611Z,3.14
2023-03-06T00:11:31.853Z,3.16
2023-03-06T00:11:44.121Z,3.14
2023-03-06T00:11:56.842Z,3.12
2023-03-06T00:12:10.252Z,3.14
2023-03-06T00:12:23.692Z,3.13
2023-03-06T00:12:35.917Z,3.15
2023-03-06T00:12:49.130Z,3.14
2023-03-06T00:13:03.059Z,3.13
2023-03-06T00:13:17.798Z,3.13
2023-03-06T00:13:29.986Z,3.13
2023-03-06T00:13:42.213Z,3.11
2023-03-06T00:13:54.722Z,3.12
2023-03-06T00:14:06.743Z,3.12
2023-03-06T00:14:18.584Z,3.12
2023-03-06T00:14:30.547Z,3.11
2023-03-06T00:14:43.065Z,3.11
2023-03-06T00:14:55.461Z,3.11
2023-03-06T00:15:09.898Z,3.12
2023-03-06T00:15:24.039Z,3.10
2023-03-06T00:15:37.272Z,3.09
2023-03-06T00:15:50.369Z,3.11
2023-03-06T00:16:03.916Z,3.10
2023-03-06T00:16:16.169Z,3.11
2023-03-06T00:16:29.849Z,3.11
2023-03-06T00:16:42.540Z,3.09
2023-03-06T00:16:55.287Z,3.05
2023-03-06T00:17:09.802Z,3.10
2023-03-06T00:17:23.334Z,3.08
2023-03-06T00:17:35.647Z,3.06
2023-03-06T00:17:50.203Z,3.07
2023-03-06T00:18:03.619Z,3.07
2023-03-06T00:18:16.518Z,3.06
2023-03-06T00:18:28.832Z,3.05
2023-03-06T00:18:41.876Z,3.05
2023-03-06T00:18:54.210Z,3.06
2023-03-06T00:19:07.254Z,3.05
2023-03-06T00:19:19.787Z,3.05
2023-03-06T00:19:32.506Z,3.04
2023-03-06T00:19:45.015Z,3.05
2023-03-06T00:19:57.432Z,3.05
2023-03-06T00:20:10.809Z,3.04
2023-03-06T00:20:25.092Z,3.05
2023-03-06T00:20:39.021Z,3.03
2023-03-06T00:20:51.254Z,3.04
2023-03-06T00:21:07.611Z,3.03
2023-03-06T00:21:19.457Z,3.04
2023-03-06T00:21:31.806Z,3.04
2023-03-06T00:21:44.707Z,3.05
2023-03-06T00:21:57.270Z,3.03
2023-03-06T00:22:15.409Z,3.04
2023-03-06T00:22:27.244Z,3.03
2023-03-06T00:22:40.817Z,3.04
2023-03-06T00:22:53.370Z,3.05
2023-03-06T00:23:06.089Z,3.05
2023-03-06T00:23:18.379Z,3.07
2023-03-06T00:23:32.031Z,3.04
2023-03-06T00:23:44.379Z,3.06
2023-03-06T00:23:57.116Z,3.05
2023-03-06T00:24:09.166Z,3.05
2023-03-06T00:24:22.371Z,3.06
2023-03-06T00:24:35.978Z,3.05
2023-03-06T00:24:49.416Z,3.06
2023-03-06T00:25:04.693Z,3.07
2023-03-06T00:25:18.955Z,3.05
2023-03-06T00:25:31.130Z,3.05
2023-03-06T00:25:44.177Z,3.05
2023-03-06T00:25:56.799Z,3.06
2023-03-06T00:26:10.688Z,3.05
2023-03-06T00:26:25.405Z,3.07
2023-03-06T00:26:39.350Z,3.05
2023-03-06T00:26:52.759Z,3.06
2023-03-06T00:27:05.226Z,3.09
2023-03-06T00:27:17.658Z,3.06
2023-03-06T00:27:31.160Z,3.07
2023-03-06T00:27:43.363Z,3.09
2023-03-06T00:27:55.709Z,3.07
2023-03-06T00:28:09.307Z,3.09
2023-03-06T00:28:21.773Z,3.09
2023-03-06T00:28:33.835Z,3.08
2023-03-06T00:28:46.560Z,3.09
2023-03-06T00:28:58.774Z,3.08
2023-03-06T00:29:11.695Z,3.07
2023-03-06T00:29:24.402Z,3.04
2023-03-06T00:29:36.533Z,3.08
2023-03-06T00:29:48.981Z,3.05
2023-03-06T00:30:02.242Z,3.08
2023-03-06T00:30:16.892Z,3.09
2023-03-06T00:30:29.010Z,3.08
2023-03-06T00:30:41.437Z,3.05
2023-03-06T00:30:53.721Z,3.07
2023-03-06T00:31:06.472Z,3.06
2023-03-06T00:31:19.364Z,3.03
2023-03-06T00:31:33.150Z,3.04
2023-03-06T00:31:45.820Z,3.06
2023-03-06T00:31:58.106Z,3.05
2023-03-06T00:32:11.790Z,3.06
2023-03-06T00:32:25.240Z,3.05
2023-03-06T00:32:37.880Z,3.06
2023-03-06T00:32:50.416Z,3.06
2023-03-06T00:33:03.307Z,3.06
2023-03-06T00:33:16.624Z,3.06
2023-03-06T00:33:29.058Z,3.05
2023-03-06T00:33:41.607Z,3.06
2023-03-06T00:33:54.027Z,3.06
2023-03-06T00:34:07.176Z,3.03
2023-03-06T00:34:19.476Z,3.06
2023-03-06T00:34:32.340Z,3.06
2023-03-06T00:34:48.179Z,3.06
2023-03-06T00:35:01.058Z,3.05
2023-03-06T00:35:14.782Z,3.07
2023-03-06T00:35:28.894Z,3.05
2023-03-06T00:35:42.056Z,3.07
2023-03-06T00:35:54.366Z,3.07
2023-03-06T00:36:07.264Z,3.07
2023-03-06T00:36:19.873Z,3.05
2023-03-06T00:36:32.236Z,3.04
2023-03-06T00:36:45.536Z,3.07
2023-03-06T00:36:58.259Z,3.08
2023-03-06T00:37:11.470Z,3.04
2023-03-06T00:37:25.230Z,3.08
2023-03-06T00:37:38.102Z,3.06
2023-03-06T00:37:51.584Z,3.07
2023-03-06T00:38:03.846Z,3.07
2023-03-06T00:38:18.018Z,3.08
2023-03-06T00:38:30.938Z,3.07
2023-03-06T00:38:43.104Z,3.07
2023-03-06T00:38:55.645Z,3.09
2023-03-06T00:39:10.152Z,3.09
2023-03-06T00:39:22.365Z,3.10
2023-03-06T00:39:34.496Z,3.10
2023-03-06T00:39:47.152Z,3.10
2023-03-06T00:40:00.698Z,3.10
2023-03-06T00:40:15.816Z,3.10
2023-03-06T00:40:30.007Z,3.11
2023-03-06T00:40:42.650Z,3.10
2023-03-06T00:40:54.680Z,3.10
2023-03-06T00:41:08.237Z,3.06
2023-03-06T00:41:21.117Z,3.09
2023-03-06T00:41:33.216Z,3.09
2023-03-06T00:41:47.016Z,3.10
2023-03-06T00:41:59.750Z,3.11
2023-03-06T00:42:12.745Z,3.10
2023-03-06T00:42:25.079Z,3.10
2023-03-06T00:42:37.402Z,3.10
2023-03-06T00:42:50.391Z,3.06
2023-03-06T00:43:07.199Z,3.10
2023-03-06T00:43:21.486Z,3.10
2023-03-06T00:43:34.670Z,3.11
2023-03-06T00:43:48.086Z,3.08
2023-03-06T00:44:00.554Z,3.12
2023-03-06T00:44:14.179Z,3.11
2023-03-06T00:44:26.335Z,3.11
2023-03-06T00:44:39.530Z,3.11
2023-03-06T00:44:54.206Z,3.10
2023-03-06T00:45:10.744Z,3.09
2023-03-06T00:45:25.471Z,3.10
2023-03-06T00:45:37.837Z,3.08
2023-03-06T00:45:50.676Z,3.08
2023-03-06T00:46:03.185Z,3.07
2023-03-06T00:46:15.449Z,3.07
2023-03-06T00:46:27.794Z,3.06
2023-03-06T00:46:42.195Z,3.07
2023-03-06T00:46:54.910Z,3.07
2023-03-06T00:47:09.693Z,3.07
2023-03-06T00:47:21.814Z,3.07
2023-03-06T00:47:34.743Z,3.06
2023-03-06T00:47:47.734Z,3.05
2023-03-06T00:48:00.927Z,3.05
2023-03-06T00:48:13.201Z,3.05
2023-03-06T00:48:25.445Z,3.05
2023-03-06T00:48:37.736Z,3.03
2023-03-06T00:48:49.925Z,3.05
2023-03-06T00:49:04.459Z,3.05
2023-03-06T00:49:16.837Z,3.04
2023-03-06T00:49:29.795Z,3.04
2023-03-06T00:49:44.738Z,3.03
2023-03-06T00:49:58.490Z,3.03
2023-03-06T00:50:11.655Z,3.04
2023-03-06T00:50:23.958Z,3.04
2023-03-06T00:50:36.977Z,3.03
2023-03-06T00:50:49.470Z,3.03
2023-03-06T00:51:01.848Z,3.01
2023-03-06T00:51:14.654Z,3.04
2023-03-06T00:51:28.576Z,3.03
2023-03-06T00:51:40.615Z,3.03
2023-03-06T00:51:52.601Z,3.03
2023-03-06T00:52:06.343Z,3.02
2023-03-06T00:52:19.395Z,3.02
2023-03-06T00:52:31.921Z,3.03
2023-03-06T00:52:44.758Z,3.03
2023-03-06T00:52:58.540Z,3.03
2023-03-06T00:53:11.513Z,3.02
2023-03-06T00:53:24.122Z,3.03
2023-03-06T00:53:36.626Z,3.03
2023-03-06T00:53:48.808Z,3.01
2023-03-06T00:54:03.293Z,3.02
2023-03-06T00:54:15.035Z,3.02
2023-03-06T00:54:27.447Z,3.02
2023-03-06T00:54:39.704Z,3.03
2023-03-06T00:54:54.345Z,3.03
2023-03-06T00:55:08.082Z,3.03
2023-03-06T00:55:20.093Z,3.03
2023-03-06T00:55:32.081Z,3.04
2023-03-06T00:55:44.556Z,3.04
2023-03-06T00:55:57.217Z,3.03
2023-03-06T00:56:09.189Z,3.02
2023-03-06T00:56:21.617Z,3.03
2023-03-06T00:56:34.208Z,3.03
2023-03-06T00:56:46.334Z,3.03
2023-03-06T00:56:59.242Z,3.03
2023-03-06T00:57:12.683Z,3.01
2023-03-06T00:57:24.598Z,3.04
2023-03-06T00:57:36.876Z,3.03
2023-03-06T00:57:51.129Z,3.04
2023-03-06T00:58:03.615Z,3.04
2023-03-06T00:58:23.705Z,3.04
2023-03-06T00:58:36.078Z,3.02
2023-03-06T00:58:48.061Z,3.03
2023-03-06T00:59:00.150Z,3.04
2023-03-06T00:59:12.566Z,3.03
2023-03-06T00:59:24.776Z,3.03
2023-03-06T00:59:38.186Z,3.04
2023-03-06T00:59:50.506Z,3.05
2023-03-06T01:00:02.625Z,3.02
2023-03-06T01:00:15.320Z,3.05
2023-03-06T01:00:27.530Z,3.06
2023-03-06T01:00:40.116Z,3.08
2023-03-06T01:00:53.159Z,3.08
2023-03-06T01:01:05.572Z,3.03
2023-03-06T01:01:17.589Z,3.07
2023-03-06T01:01:29.813Z,3.07
2023-03-06T01:01:42.407Z,3.08
2023-03-06T01:01:54.233Z,3.07
2023-03-06T01:02:06.829Z,3.07
2023-03-06T01:02:19.339Z,3.07
2023-03-06T01:02:32.092Z,3.07
2023-03-06T01:02:44.098Z,3.07
2023-03-06T01:02:56.224Z,3.06
2023-03-06T01:03:09.437Z,3.04
2023-03-06T01:03:22.164Z,3.06
2023-03-06T01:03:39.132Z,3.06
2023-03-06T01:03:51.515Z,3.06
2023-03-06T01:04:05.745Z,3.07
2023-03-06T01:04:18.288Z,3.04
2023-03-06T01:04:33.445Z,3.06
2023-03-06T01:04:46.176Z,3.05
2023-03-06T01:04:59.726Z,3.06
2023-03-06T01:05:13.322Z,3.07
2023-03-06T01:05:26.305Z,3.07
2023-03-06T01:05:39.505Z,3.07
2023-03-06T01:05:52.100Z,3.08
2023-03-06T01:06:04.406Z,3.09
2023-03-06T01:06:16.512Z,3.08
2023-03-06T01:06:28.828Z,3.09
2023-03-06T01:06:41.540Z,3.09
2023-03-06T01:06:54.457Z,3.10
2023-03-06T01:07:06.669Z,3.09
2023-03-06T01:07:20.440Z,3.09
2023-03-06T01:07:32.234Z,3.12
2023-03-06T01:07:44.377Z,3.10
2023-03-06T01:07:58.152Z,3.10
2023-03-06T01:08:12.069Z,3.10
2023-03-06T01:08:24.568Z,3.09
2023-03-06T01:08:37.552Z,3.09
2023-03-06T01:08:50.493Z,3.12
2023-03-06T01:09:04.513Z,3.12
2023-03-06T01:09:16.688Z,3.12
2023-03-06T01:09:30.106Z,3.12
2023-03-06T01:09:42.498Z,3.12
2023-03-06T01:09:55.690Z,3.11
2023-03-06T01:10:10.550Z,3.11
2023-03-06T01:10:22.649Z,3.09
2023-03-06T01:10:37.953Z,3.11
2023-03-06T01:10:50.375Z,3.10
2023-03-06T01:11:02.692Z,3.10
2023-03-06T01:11:15.193Z,3.11
2023-03-06T01:11:28.956Z,3.11
2023-03-06T01:11:41.279Z,3.11
2023-03-06T01:11:53.681Z,3.10
2023-03-06T01:12:06.760Z,3.11
2023-03-06T01:12:22.846Z,3.10
2023-03-06T01:12:36.649Z,3.11
2023-03-06T01:12:48.813Z,3.11
2023-03-06T01:13:01.605Z,3.10
2023-03-06T01:13:14.102Z,3.11
2023-03-06T01:13:26.528Z,3.09
2023-03-06T01:13:39.160Z,3.10
2023-03-06T01:13:51.806Z,3.09
2023-03-06T01:14:05.940Z,3.11
2023-03-06T01:14:17.950Z,3.10
2023-03-06T01:14:30.199Z,3.10
2023-03-06T01:14:42.493Z,3.09
2023-03-06T01:14:55.116Z,3.10
2023-03-06T01:15:08.985Z,3.10
2023-03-06T01:15:21.696Z,3.10
2023-03-06T01:15:34.060Z,3.10
2023-03-06T01:15:47.912Z,3.11
2023-03-06T01:16:07.352Z,3.10
2023-03-06T01:16:20.113Z,3.08
2023-03-06T01:16:34.203Z,3.10
2023-03-06T01:16:46.429Z,3.07
2023-03-06T01:16:58.829Z,3.08
2023-03-06T01:17:12.228Z,3.09
2023-03-06T01:17:24.611Z,3.10
2023-03-06T01:17:37.025Z,3.09
2023-03-06T01:17:51.676Z,3.10
2023-03-06T01:18:04.186Z,3.11
2023-03-06T01:18:16.381Z,3.09
2023-03-06T01:18:28.957Z,3.08
2023-03-06T01:18:43.145Z,3.08
2023-03-06T01:18:55.750Z,3.08
2023-03-06T01:19:08.505Z,3.09
2023-03-06T01:19:23.410Z,3.10
2023-03-06T01:19:35.459Z,3.09
2023-03-06T01:19:48.124Z,3.09
2023-03-06T01:20:00.371Z,3.09
2023-03-06T01:20:15.076Z,3.09
2023-03-06T01:20:28.347Z,3.09
2023-03-06T01:20:40.745Z,3.10
2023-03-06T01:20:53.539Z,3.11
2023-03-06T01:21:07.118Z,3.12
2023-03-06T01:21:20.243Z,3.12
2023-03-06T01:21:33.374Z,3.13
2023-03-06T01:21:45.844Z,3.14
2023-03-06T01:21:58.135Z,3.15
2023-03-06T01:22:10.866Z,3.16
2023-03-06T01:22:23.533Z,3.17
2023-03-06T01:22:38.526Z,3.18
2023-03-06T01:22:52.452Z,3.17
2023-03-06T01:23:05.712Z,3.18
2023-03-06T01:23:17.969Z,3.19
2023-03-06T01:23:33.250Z,3.19
2023-03-06T01:23:45.702Z,3.20
2023-03-06T01:23:59.409Z,3.20
2023-03-06T01:24:13.408Z,3.21
2023-03-06T01:24:26.182Z,3.22
2023-03-06T01:24:43.897Z,3.21
2023-03-06T01:24:56.398Z,3.22
2023-03-06T01:25:09.880Z,3.22
2023-03-06T01:25:22.116Z,3.21
2023-03-06T01:25:37.622Z,3.22
2023-03-06T01:25:50.454Z,3.21
2023-03-06T01:26:06.080Z,3.23
2023-03-06T01:26:20.220Z,3.22
2023-03-06T01:26:32.639Z,3.22
2023-03-06T01:26:51.756Z,3.25
2023-03-06T01:27:04.853Z,3.26
2023-03-06T01:27:17.453Z,3.27
2023-03-06T01:27:29.649Z,3.27
2023-03-06T01:27:43.358Z,3.23
2023-03-06T01:27:56.834Z,3.27
2023-03-06T01:28:09.109Z,3.27
2023-03-06T01:28:21.558Z,3.25
2023-03-06T01:28:34.051Z,3.25
2023-03-06T01:28:47.840Z,3.24
2023-03-06T01:29:00.023Z,3.24
2023-03-06T01:29:13.402Z,3.24
2023-03-06T01:29:26.071Z,3.24
2023-03-06T01:29:38.674Z,3.24
2023-03-06T01:29:50.948Z,3.22
2023-03-06T01:30:04.045Z,3.22
2023-03-06T01:30:17.211Z,3.23
2023-03-06T01:30:29.628Z,3.23
2023-03-06T01:30:42.532Z,3.24
2023-03-06T01:30:54.856Z,3.22
2023-03-06T01:31:08.075Z,3.24
2023-03-06T01:31:20.485Z,3.24
2023-03-06T01:31:33.133Z,3.19
2023-03-06T01:31:48.182Z,3.22
2023-03-06T01:32:01.136Z,3.24
2023-03-06T01:32:13.373Z,3.24
2023-03-06T01:32:27.096Z,3.21
2023-03-06T01:32:39.707Z,3.21
2023-03-06T01:32:53.062Z,3.22
2023-03-06T01:33:05.873Z,3.22
2023-03-06T01:33:18.059Z,3.23
2023-03-06T01:33:30.509Z,3.23
2023-03-06T01:33:43.531Z,3.22
2023-03-06T01:33:56.129Z,3.21
2023-03-06T01:34:08.447Z,3.22
2023-03-06T01:34:21.101Z,3.22
2023-03-06T01:34:34.120Z,3.21
2023-03-06T01:34:46.758Z,3.22
2023-03-06T01:34:59.427Z,3.17
2023-03-06T01:35:12.989Z,3.21
2023-03-06T01:35:26.147Z,3.24
2023-03-06T01:35:38.485Z,3.25
2023-03-06T01:35:53.189Z,3.25
2023-03-06T01:36:07.496Z,3.22
2023-03-06T01:36:19.781Z,3.25
2023-03-06T01:36:32.288Z,3.24
2023-03-06T01:36:45.206Z,3.19
2023-03-06T01:36:57.928Z,3.21
2023-03-06T01:37:10.936Z,3.23
2023-03-06T01:37:23.030Z,3.22
2023-03-06T01:37:35.941Z,3.22
2023-03-06T01:37:48.790Z,3.23
2023-03-06T01:38:01.319Z,3.22
2023-03-06T01:38:15.578Z,3.21
2023-03-06T01:38:27.953Z,3.23
2023-03-06T01:38:40.211Z,3.25
2023-03-06T01:38:52.572Z,3.23
2023-03-06T01:39:05.485Z,3.24
2023-03-06T01:39:17.827Z,3.23
2023-03-06T01:39:30.782Z,3.21
2023-03-06T01:39:42.625Z,3.21
2023-03-06T01:39:55.045Z,3.21
2023-03-06T01:40:10.236Z,3.20
2023-03-06T01:40:22.716Z,3.21
2023-03-06T01:40:37.813Z,3.19
2023-03-06T01:40:51.939Z,3.18
2023-03-06T01:41:04.786Z,3.21
2023-03-06T01:41:17.507Z,3.18
2023-03-06T01:41:29.857Z,3.20
2023-03-06T01:41:42.548Z,3.19
2023-03-06T01:41:55.302Z,3.20
2023-03-06T01:42:07.954Z,3.18
2023-03-06T01:42:20.651Z,3.18
2023-03-06T01:42:32.893Z,3.17
2023-03-06T01:42:50.247Z,3.18
2023-03-06T01:43:10.004Z,3.19
2023-03-06T01:43:29.004Z,3.18
2023-03-06T01:43:42.242Z,3.18
2023-03-06T01:43:54.467Z,3.19
2023-03-06T01:44:08.019Z,3.19
2023-03-06T01:44:20.560Z,3.19
2023-03-06T01:44:33.617Z,3.19
2023-03-06T01:45:07.460Z,3.17
2023-03-06T01:45:57.774Z,3.16
2023-03-06T01:46:38.178Z,3.15
2023-03-06T01:46:51.230Z,3.15
2023-03-06T01:47:03.662Z,3.16
2023-03-06T01:47:15.895Z,3.15
2023-03-06T01:47:28.413Z,3.16
2023-03-06T01:47:40.911Z,3.12
2023-03-06T01:47:53.772Z,3.13
2023-03-06T01:48:06.036Z,3.15
2023-03-06T01:48:20.618Z,3.16
2023-03-06T01:48:35.411Z,3.19
2023-03-06T01:48:48.505Z,3.18
2023-03-06T01:49:04.468Z,3.19
2023-03-06T01:49:20.643Z,3.18
2023-03-06T01:49:37.271Z,3.18
2023-03-06T01:49:50.196Z,3.18
2023-03-06T01:50:03.902Z,3.18
2023-03-06T01:50:16.771Z,3.18
2023-03-06T01:50:29.391Z,3.16
2023-03-06T01:50:42.527Z,3.17
2023-03-06T01:50:55.704Z,3.19
2023-03-06T01:51:09.637Z,3.19
2023-03-06T01:51:21.971Z,3.16
2023-03-06T01:51:38.652Z,3.18
2023-03-06T01:51:53.701Z,3.19
2023-03-06T01:52:09.116Z,3.19
2023-03-06T01:52:24.110Z,3.20
2023-03-06T01:52:43.624Z,3.19
2023-03-06T01:53:00.069Z,3.18
2023-03-06T01:53:14.109Z,3.21
2023-03-06T01:53:27.958Z,3.19
2023-03-06T01:53:41.362Z,3.19
2023-03-06T01:53:54.273Z,3.20
2023-03-06T01:54:10.666Z,3.16
2023-03-06T01:54:25.348Z,3.18
2023-03-06T01:54:42.814Z,3.20
2023-03-06T01:54:59.112Z,3.19
2023-03-06T01:55:15.713Z,3.20
2023-03-06T01:55:33.418Z,3.21
2023-03-06T01:55:46.074Z,3.19
2023-03-06T01:55:58.790Z,3.20
2023-03-06T01:56:13.046Z,3.20
2023-03-06T01:56:26.165Z,3.21
2023-03-06T01:56:41.928Z,3.23
2023-03-06T01:56:57.891Z,3.23
2023-03-06T01:57:13.713Z,3.24
2023-03-06T01:57:28.979Z,3.25
2023-03-06T01:57:44.412Z,3.25
2023-03-06T01:57:59.438Z,3.25
2023-03-06T01:58:17.776Z,3.22
2023-03-06T01:58:30.151Z,3.24
2023-03-06T01:58:44.554Z,3.22
2023-03-06T01:58:57.373Z,3.24
2023-03-06T01:59:09.736Z,3.24
2023-03-06T01:59:22.872Z,3.24
2023-03-06T01:59:38.442Z,3.25
2023-03-06T01:59:55.703Z,3.24
2023-03-06T02:00:13.374Z,3.23
2023-03-06T02:00:29.531Z,3.24
2023-03-06T02:00:42.142Z,3.24
2023-03-06T02:00:54.905Z,3.24
2023-03-06T02:01:10.121Z,3.25
2023-03-06T02:01:23.002Z,3.25
2023-03-06T02:01:36.699Z,3.23
2023-03-06T02:01:50.275Z,3.24
2023-03-06T02:02:04.080Z,3.26
2023-03-06T02:02:19.557Z,3.25
2023-03-06T02:02:31.443Z,3.23
2023-03-06T02:02:49.240Z,3.24
2023-03-06T02:03:06.622Z,3.23
2023-03-06T02:03:22.864Z,3.23
2023-03-06T02:03:35.991Z,3.21
2023-03-06T02:03:50.526Z,3.23
2023-03-06T02:04:11.554Z,3.22
2023-03-06T02:04:24.711Z,3.25
2023-03-06T02:04:38.701Z,3.24
2023-03-06T02:04:51.217Z,3.24
2023-03-06T02:05:06.835Z,3.23
2023-03-06T02:05:19.778Z,3.25
2023-03-06T02:05:32.735Z,3.26
2023-03-06T02:05:47.610Z,3.27
2023-03-06T02:06:02.342Z,3.26
2023-03-06T02:06:19.010Z,3.25
2023-03-06T02:06:32.506Z,3.27
2023-03-06T02:06:49.315Z,3.27
2023-03-06T02:07:04.414Z,3.25
2023-03-06T02:07:20.743Z,3.24
2023-03-06T02:07:33.776Z,3.25
2023-03-06T02:07:47.359Z,3.24
2023-03-06T02:08:00.235Z,3.22
2023-03-06T02:08:16.089Z,3.24
2023-03-06T02:08:32.926Z,3.23
2023-03-06T02:08:45.277Z,3.24
2023-03-06T02:08:57.910Z,3.21
2023-03-06T02:09:12.355Z,3.21
2023-03-06T02:09:24.579Z,3.24
2023-03-06T02:09:39.552Z,3.23
2023-03-06T02:09:53.551Z,3.23
2023-03-06T02:10:06.163Z,3.23
2023-03-06T02:10:21.544Z,3.24
2023-03-06T02:10:33.950Z,3.24
2023-03-06T02:10:58.901Z,3.24
2023-03-06T02:11:14.529Z,3.26
2023-03-06T02:11:30.148Z,3.29
2023-03-06T02:11:42.359Z,3.27
2023-03-06T02:11:54.915Z,3.24
2023-03-06T02:12:10.210Z,3.28
2023-03-06T02:12:23.340Z,3.28
2023-03-06T02:12:36.802Z,3.28
2023-03-06T02:12:50.922Z,3.29
2023-03-06T02:13:04.176Z,3.29
2023-03-06T02:13:17.142Z,3.30
2023-03-06T02:13:30.202Z,3.30
2023-03-06T02:13:43.952Z,3.28
2023-03-06T02:13:57.744Z,3.30
2023-03-06T02:14:11.404Z,3.32
2023-03-06T02:14:24.171Z,3.33
2023-03-06T02:14:38.615Z,3.32
2023-03-06T02:14:51.197Z,3.30
2023-03-06T02:15:04.780Z,3.31
2023-03-06T02:15:20.408Z,3.33
2023-03-06T02:15:33.482Z,3.34
2023-03-06T02:15:45.991Z,3.32
2023-03-06T02:15:59.051Z,3.33
2023-03-06T02:16:12.293Z,3.33
2023-03-06T02:16:28.016Z,3.31
2023-03-06T02:16:45.142Z,3.27
2023-03-06T02:16:58.526Z,3.30
2023-03-06T02:17:13.404Z,3.30
2023-03-06T02:17:27.265Z,3.30
2023-03-06T02:17:41.768Z,3.30
2023-03-06T02:17:54.661Z,3.31
2023-03-06T02:18:07.392Z,3.31
2023-03-06T02:18:19.924Z,3.31
2023-03-06T02:18:34.286Z,3.31
2023-03-06T02:18:46.983Z,3.30
2023-03-06T02:19:02.624Z,3.31
2023-03-06T02:19:28.546Z,3.30
2023-03-06T02:19:52.491Z,3.28
2023-03-06T02:20:12.227Z,3.27
2023-03-06T02:20:29.695Z,3.28
2023-03-06T02:20:46.269Z,3.29
2023-03-06T02:21:06.590Z,3.27
2023-03-06T02:21:25.201Z,3.30
2023-03-06T02:21:38.104Z,3.30
2023-03-06T02:21:54.014Z,3.28
2023-03-06T02:22:06.525Z,3.29
2023-03-06T02:22:20.034Z,3.24
2023-03-06T02:22:46.271Z,3.29
2023-03-06T02:23:04.264Z,3.29
2023-03-06T02:23:28.195Z,3.29
2023-03-06T02:23:51.509Z,3.28
2023-03-06T02:24:18.943Z,3.30
2023-03-06T02:24:37.662Z,3.30
2023-03-06T02:24:59.004Z,3.29
2023-03-06T02:25:22.899Z,3.30
2023-03-06T02:25:38.060Z,3.31
2023-03-06T02:25:52.783Z,3.29
2023-03-06T02:26:06.756Z,3.30
2023-03-06T02:26:20.916Z,3.30
2023-03-06T02:26:35.048Z,3.29
2023-03-06T02:26:48.414Z,3.29
2023-03-06T02:27:03.095Z,3.28
2023-03-06T02:27:17.178Z,3.31
2023-03-06T02:27:30.261Z,3.31
2023-03-06T02:27:42.840Z,3.32
2023-03-06T02:27:56.097Z,3.32
2023-03-06T02:28:11.932Z,3.31
2023-03-06T02:28:26.067Z,3.32
2023-03-06T02:28:39.068Z,3.34
2023-03-06T02:28:51.457Z,3.34
2023-03-06T02:29:03.962Z,3.34
2023-03-06T02:29:20.699Z,3.34
2023-03-06T02:29:35.243Z,3.33
2023-03-06T02:29:50.327Z,3.34
2023-03-06T02:30:06.478Z,3.34
2023-03-06T02:30:20.081Z,3.34
2023-03-06T02:30:32.649Z,3.34
2023-03-06T02:30:49.170Z,3.33
2023-03-06T02:31:02.487Z,3.31
2023-03-06T02:31:21.787Z,3.32
2023-03-06T02:31:35.137Z,3.34
2023-03-06T02:31:47.397Z,3.35
2023-03-06T02:31:59.865Z,3.34
2023-03-06T02:32:12.464Z,3.35
2023-03-06T02:32:25.262Z,3.33
2023-03-06T02:32:38.000Z,3.28
2023-03-06T02:32:51.414Z,3.34
2023-03-06T02:33:06.596Z,3.34
2023-03-06T02:33:20.980Z,3.34
2023-03-06T02:33:35.375Z,3.34
2023-03-06T02:34:00.465Z,3.29
2023-03-06T02:34:54.581Z,3.33
2023-03-06T02:35:19.356Z,3.35
2023-03-06T02:35:34.233Z,3.33
2023-03-06T02:35:52.646Z,3.35
2023-03-06T02:36:09.578Z,3.34
2023-03-06T02:36:25.321Z,3.35
2023-03-06T02:36:41.072Z,3.36
2023-03-06T02:36:56.630Z,3.35
2023-03-06T02:37:10.227Z,3.35
2023-03-06T02:37:27.450Z,3.34
2023-03-06T02:37:44.069Z,3.34
2023-03-06T02:37:58.389Z,3.35
2023-03-06T02:38:15.002Z,3.34
2023-03-06T02:38:34.813Z,3.35
2023-03-06T02:38:51.356Z,3.34
2023-03-06T02:39:08.521Z,3.36
2023-03-06T02:39:26.124Z,3.38
2023-03-06T02:39:44.380Z,3.39
2023-03-06T02:40:08.042Z,3.41
2023-03-06T02:40:26.703Z,3.40
2023-03-06T02:40:40.549Z,3.40
2023-03-06T02:41:03.673Z,3.39
2023-03-06T02:41:16.051Z,3.38
2023-03-06T02:41:28.277Z,3.39
2023-03-06T02:41:40.649Z,3.39
2023-03-06T02:41:54.892Z,3.38
2023-03-06T02:42:08.297Z,3.39
2023-03-06T02:42:26.839Z,3.39
2023-03-06T02:42:47.212Z,3.38
2023-03-06T02:43:00.826Z,3.39
2023-03-06T02:43:15.887Z,3.38
2023-03-06T02:43:31.934Z,3.38
2023-03-06T02:43:47.773Z,3.39
2023-03-06T02:43:59.783Z,3.39
2023-03-06T02:44:12.102Z,3.38
2023-03-06T02:44:28.695Z,3.37
2023-03-06T02:44:41.575Z,3.39
2023-03-06T02:44:55.636Z,3.35
2023-03-06T02:45:12.757Z,3.38
2023-03-06T02:45:32.056Z,3.38
2023-03-06T02:45:48.780Z,3.37
2023-03-06T02:46:01.386Z,3.33
2023-03-06T02:46:13.720Z,3.37
2023-03-06T02:46:26.895Z,3.38
2023-03-06T02:46:39.840Z,3.39
2023-03-06T02:46:52.523Z,3.38
2023-03-06T02:47:07.602Z,3.39
2023-03-06T02:47:20.111Z,3.38
2023-03-06T02:47:33.053Z,3.39
2023-03-06T02:47:47.191Z,3.40
2023-03-06T02:47:59.610Z,3.40
2023-03-06T02:48:11.746Z,3.38
2023-03-06T02:48:24.046Z,3.41
2023-03-06T02:48:37.147Z,3.42
2023-03-06T02:48:49.431Z,3.40
2023-03-06T02:49:01.638Z,3.41
2023-03-06T02:49:14.417Z,3.41
2023-03-06T02:49:26.736Z,3.42
2023-03-06T02:49:39.333Z,3.42
2023-03-06T02:49:51.901Z,3.42
2023-03-06T02:50:04.338Z,3.42
2023-03-06T02:50:18.149Z,3.42
2023-03-06T02:50:30.848Z,3.41
2023-03-06T02:50:45.109Z,3.43
2023-03-06T02:50:57.309Z,3.42
2023-03-06T02:51:09.789Z,3.42
2023-03-06T02:51:22.407Z,3.45
2023-03-06T02:51:34.839Z,3.44
2023-03-06T02:51:47.556Z,3.44
2023-03-06T02:52:00.146Z,3.44
2023-03-06T02:52:12.910Z,3.44
2023-03-06T02:52:25.423Z,3.44
2023-03-06T02:52:37.995Z,3.44
2023-03-06T02:52:52.035Z,3.43
2023-03-06T02:53:06.701Z,3.43
2023-03-06T02:53:22.988Z,3.43
2023-03-06T02:53:35.408Z,3.42
2023-03-06T02:53:47.818Z,3.42
2023-03-06T02:54:00.277Z,3.43
2023-03-06T02:54:13.231Z,3.42
2023-03-06T02:54:28.639Z,3.40
2023-03-06T02:54:40.956Z,3.43
2023-03-06T02:54:54.333Z,3.43
2023-03-06T02:55:07.122Z,3.43
2023-03-06T02:55:20.360Z,3.43
2023-03-06T02:55:34.617Z,3.40
2023-03-06T02:55:47.196Z,3.42
2023-03-06T02:56:01.233Z,3.42
2023-03-06T02:56:15.688Z,3.43
2023-03-06T02:56:27.820Z,3.44
2023-03-06T02:56:40.577Z,3.44
2023-03-06T02:56:53.349Z,3.44
2023-03-06T02:57:06.221Z,3.43
2023-03-06T02:57:19.544Z,3.44
2023-03-06T02:57:31.605Z,3.44
2023-03-06T02:57:44.590Z,3.44
2023-03-06T02:57:57.614Z,3.47
2023-03-06T02:58:10.043Z,3.48
2023-03-06T02:58:22.028Z,3.48
2023-03-06T02:58:34.553Z,3.48
2023-03-06T02:58:46.845Z,3.48
2023-03-06T02:58:59.297Z,3.46
2023-03-06T02:59:11.631Z,3.48
2023-03-06T02:59:24.572Z,3.45
2023-03-06T02:59:38.890Z,3.48
2023-03-06T02:59:52.150Z,3.47
2023-03-06T03:00:07.539Z,3.48
2023-03-06T03:00:20.755Z,3.48
2023-03-06T03:00:33.312Z,3.47
2023-03-06T03:00:47.962Z,3.48
2023-03-06T03:01:00.883Z,3.48
2023-03-06T03:01:14.125Z,3.46
2023-03-06T03:01:29.403Z,3.48
2023-03-06T03:01:42.879Z,3.49
2023-03-06T03:01:56.870Z,3.49
2023-03-06T03:02:11.215Z,3.49
2023-03-06T03:02:24.803Z,3.46
2023-03-06T03:02:39.388Z,3.46
2023-03-06T03:02:51.704Z,3.48
2023-03-06T03:03:05.591Z,3.46
2023-03-06T03:03:18.143Z,3.45
2023-03-06T03:03:31.177Z,3.48
2023-03-06T03:03:44.195Z,3.49
2023-03-06T03:03:56.531Z,3.50
2023-03-06T03:04:09.422Z,3.51
2023-03-06T03:04:23.122Z,3.52
2023-03-06T03:04:36.282Z,3.53